Time;durP1;ratioP1;P1;durP2;ratioP2;P2;SDS_P1;SDS_P2;PMS_P1;PMS_P2;Temp;Humidity;BMP_temperature;BMP_pressure;BME280_temperature;BME280_humidity;BME280_pressure;Samples;Min_cycle;Max_cycle;Signal;HPM_P1;HPM_P2
2022/06/10 00:00:56;;;;;;;17.32;7.92;;;;;;;23.33;61.25;100466.59;1722493;81;21582;-71
2022/06/10 00:03:25;;;;;;;16.77;9.50;;;;;;;23.18;61.73;100465.48;1737945;80;21008;-71
2022/06/10 00:05:57;;;;;;;22.90;9.98;;;;;;;23.23;61.58;100467.66;1726851;82;21076;-71
2022/06/10 00:08:28;;;;;;;20.77;9.85;;;;;;;23.11;62.23;100468.36;1727581;80;21075;-71
2022/06/10 00:10:57;;;;;;;16.62;9.83;;;;;;;23.13;62.19;100469.86;1713375;82;21052;-71
2022/06/10 00:13:30;;;;;;;12.35;8.38;;;;;;;22.96;62.36;100468.86;1712512;82;21039;-71
2022/06/10 00:15:59;;;;;;;16.20;7.90;;;;;;;23.03;62.10;100477.48;1736550;80;21575;-71
2022/06/10 00:18:31;;;;;;;14.73;8.00;;;;;;;23.07;61.98;100477.02;1710330;83;21036;-71
2022/06/10 00:21:00;;;;;;;17.32;9.53;;;;;;;23.06;62.37;100480.64;1715432;80;21086;-71
2022/06/10 00:23:27;;;;;;;17.23;8.98;;;;;;;23.11;62.62;100486.25;1729735;82;21040;-71
2022/06/10 00:25:55;;;;;;;13.55;8.15;;;;;;;23.14;62.02;100482.52;1738228;80;21036;-71
2022/06/10 00:28:23;;;;;;;13.98;9.33;;;;;;;22.56;63.29;100483.18;1738248;82;21138;-71
2022/06/10 00:30:51;;;;;;;13.55;8.28;;;;;;;22.43;64.59;100482.71;1730373;82;21099;-71
2022/06/10 00:33:19;;;;;;;13.75;8.70;;;;;;;23.06;62.59;100478.51;1711437;80;21067;-71
2022/06/10 00:35:46;;;;;;;17.02;9.03;;;;;;;23.03;62.50;100483.55;1746205;82;21089;-71
2022/06/10 00:38:13;;;;;;;18.07;9.33;;;;;;;22.96;62.77;100478.05;1727374;81;21066;-71
2022/06/10 00:40:52;;;;;;;18.90;9.18;;;;;;;23.07;62.56;100484.08;1732584;80;21048;-70
2022/06/10 00:43:24;;;;;;;18.23;9.40;;;;;;;22.98;62.61;100491.03;1720755;82;21610;-71
2022/06/10 00:46:03;;;;;;;20.97;10.10;;;;;;;22.86;63.25;100481.22;1715521;81;21040;-70
2022/06/10 00:48:39;;;;;;;20.25;10.15;;;;;;;22.03;65.38;100485.09;1722232;80;21134;-72
2022/06/10 00:51:37;;;;;;;23.50;10.70;;;;;;;22.04;66.07;100488.54;1733680;80;21551;-70
2022/06/10 00:54:20;;;;;;;17.80;9.20;;;;;;;22.06;66.42;100486.60;1682011;82;21008;-70
2022/06/10 00:57:00;;;;;;;14.83;8.78;;;;;;;22.05;66.38;100486.28;1726426;80;21079;-71
2022/06/10 00:59:32;;;;;;;15.03;8.83;;;;;;;22.01;67.43;100489.66;1731385;80;21051;-70
2022/06/10 01:02:13;;;;;;;20.62;10.23;;;;;;;22.11;67.73;100489.14;1721751;81;21079;-71
2022/06/10 01:04:42;;;;;;;20.20;10.20;;;;;;;21.97;68.25;100490.91;1731891;82;21123;-70
2022/06/10 01:07:12;;;;;;;19.52;9.78;;;;;;;22.08;67.66;100495.15;1722181;80;21476;-70
2022/06/10 01:09:41;;;;;;;18.90;10.18;;;;;;;22.01;67.78;100502.27;1721224;81;21496;-70
2022/06/10 01:12:28;;;;;;;16.82;9.75;;;;;;;22.01;67.96;100497.52;1718305;80;21049;-71
2022/06/10 01:15:09;;;;;;;17.12;9.90;;;;;;;22.00;68.55;100496.70;1720446;82;21075;-70
2022/06/10 01:18:09;;;;;;;18.82;9.88;;;;;;;21.88;68.87;100496.53;1728090;82;21040;-71
2022/06/10 01:21:17;;;;;;;22.02;9.93;;;;;;;21.69;69.83;100498.67;1738382;82;21087;-71
2022/06/10 01:24:14;;;;;;;14.50;9.13;;;;;;;21.59;70.82;100497.41;1718184;82;21154;-70
2022/06/10 01:30:28;;;;;;;16.20;9.08;;;;;;;21.63;70.97;100504.48;1716329;80;21036;-71
2022/06/10 01:33:16;;;;;;;15.28;9.23;;;;;;;21.57;71.43;100501.11;1720811;82;21087;-71
2022/06/10 01:35:58;;;;;;;15.30;9.38;;;;;;;21.77;70.83;100501.91;1729642;80;21101;-71
2022/06/10 01:38:44;;;;;;;15.75;8.88;;;;;;;21.67;71.27;100498.48;1709200;82;21072;-71
2022/06/10 01:41:31;;;;;;;19.10;8.90;;;;;;;21.92;70.06;100501.02;1738891;82;21120;-71
2022/06/10 01:44:22;;;;;;;18.60;9.60;;;;;;;22.06;70.62;100500.56;1730064;82;21519;-71
2022/06/10 01:46:55;;;;;;;16.85;9.60;;;;;;;22.35;69.96;100497.03;1728832;80;21044;-72
2022/06/10 01:49:30;;;;;;;16.37;9.25;;;;;;;22.25;69.66;100507.55;1729581;81;21036;-71
2022/06/10 01:52:34;;;;;;;17.02;9.20;;;;;;;22.16;70.07;100509.68;1715493;82;21087;-71
2022/06/10 01:55:09;;;;;;;14.93;8.60;;;;;;;22.18;70.11;100511.67;1729468;82;21032;-70
2022/06/10 01:57:51;;;;;;;14.23;9.15;;;;;;;22.08;70.95;100509.11;1727320;80;21169;-70
2022/06/10 02:00:23;;;;;;;14.07;7.40;;;;;;;22.02;71.82;100508.36;1724543;82;21086;-70
2022/06/10 02:03:10;;;;;;;14.05;8.08;;;;;;;22.01;72.52;100515.37;1691009;81;21024;-71
2022/06/10 02:06:00;;;;;;;14.38;8.53;;;;;;;22.14;72.18;100515.55;1723668;80;21036;-71
2022/06/10 02:08:35;;;;;;;12.05;7.58;;;;;;;22.32;71.73;100513.89;1727466;80;21043;-71
2022/06/10 02:11:16;;;;;;;13.88;7.70;;;;;;;22.35;70.87;100518.02;1724786;80;21031;-71
2022/06/10 02:13:52;;;;;;;16.07;7.70;;;;;;;22.23;71.67;100517.83;1724718;80;21073;-70
2022/06/10 02:16:29;;;;;;;13.55;7.80;;;;;;;22.31;71.72;100524.03;1724529;82;21617;-70
2022/06/10 02:19:05;;;;;;;14.03;7.60;;;;;;;22.39;71.88;100523.31;1730623;82;21032;-70
2022/06/10 02:21:40;;;;;;;11.20;7.72;;;;;;;22.48;71.44;100521.61;1713544;81;22198;-70
2022/06/10 02:24:13;;;;;;;12.43;7.37;;;;;;;22.46;70.93;100519.13;1717436;82;21089;-70
2022/06/10 02:26:42;;;;;;;13.38;7.85;;;;;;;22.49;71.33;100522.79;1668454;82;21004;-70
2022/06/10 02:29:18;;;;;;;17.73;8.60;;;;;;;22.71;70.66;100520.73;1663757;83;21195;-70
2022/06/10 02:31:50;;;;;;;14.75;8.10;;;;;;;22.83;70.31;100529.23;1716625;82;21083;-70
2022/06/10 02:34:17;;;;;;;14.60;8.18;;;;;;;22.84;70.48;100525.66;1737048;82;21503;-69
2022/06/10 02:37:05;;;;;;;13.00;7.30;;;;;;;23.08;70.05;100530.38;1725623;82;21547;-70
2022/06/10 02:39:49;;;;;;;15.00;7.53;;;;;;;23.23;68.50;100525.44;1735239;80;21035;-70
2022/06/10 02:42:29;;;;;;;;;;;;;;;23.19;68.69;100531.00;1730035;82;21059;-69
2022/06/10 02:45:35;;;;;;;11.35;6.58;;;;;;;23.40;68.33;100535.13;1709577;83;20122;-70
2022/06/10 02:48:16;;;;;;;14.25;6.75;;;;;;;23.45;67.70;100535.98;1705847;84;21032;-70
2022/06/10 02:50:45;;;;;;;9.75;5.70;;;;;;;23.69;67.52;100549.33;1726995;80;21135;-70
2022/06/10 02:53:13;;;;;;;9.23;6.22;;;;;;;23.94;63.62;100536.39;1716049;80;21024;-70
2022/06/10 02:55:41;;;;;;;11.45;6.70;;;;;;;24.14;64.70;100540.96;1733006;82;21590;-69
2022/06/10 03:01:24;;;;;;;8.68;5.55;;;;;;;24.25;63.35;100538.55;1736071;82;21066;-70
2022/06/10 03:04:21;;;;;;;11.33;5.70;;;;;;;24.60;59.92;100542.88;1740065;82;21578;-70
2022/06/10 03:07:11;;;;;;;8.30;5.60;;;;;;;24.77;58.11;100550.34;1734891;80;21035;-70
2022/06/10 03:10:06;;;;;;;7.45;5.37;;;;;;;24.99;59.23;100551.06;1710269;81;21032;-70
2022/06/10 03:12:45;;;;;;;10.35;5.90;;;;;;;25.18;58.89;100547.80;1730969;81;21555;-69
2022/06/10 03:15:32;;;;;;;8.78;5.60;;;;;;;25.96;57.65;100551.36;1730733;82;21564;-70
2022/06/10 03:18:21;;;;;;;10.10;5.50;;;;;;;26.12;57.32;100547.88;1738350;82;21044;-69
2022/06/10 03:20:57;;;;;;;10.45;5.33;;;;;;;26.31;55.88;100553.77;1714869;82;21067;-69
2022/06/10 03:23:58;;;;;;;10.40;5.22;;;;;;;26.46;55.83;100550.75;1709689;83;21036;-70
2022/06/10 03:26:40;;;;;;;17.73;5.67;;;;;;;25.77;56.70;100549.02;1725716;80;21067;-70
2022/06/10 03:29:12;;;;;;;13.88;5.45;;;;;;;25.85;55.15;100544.25;1733858;80;21093;-71
2022/06/10 03:31:44;;;;;;;10.68;5.40;;;;;;;26.03;54.12;100546.23;1731543;82;21484;-70
2022/06/10 03:34:43;;;;;;;9.90;4.80;;;;;;;25.96;54.81;100547.91;1723540;82;21067;-70
2022/06/10 03:37:13;;;;;;;7.83;5.00;;;;;;;26.48;53.43;100552.73;1718507;80;21028;-70
2022/06/10 03:39:43;;;;;;;8.78;4.85;;;;;;;26.58;53.31;100549.42;1714362;80;21048;-70
2022/06/10 03:42:16;;;;;;;10.28;4.60;;;;;;;26.68;52.96;100551.02;1735728;82;21001;-69
2022/06/10 03:44:47;;;;;;;9.05;4.90;;;;;;;26.74;51.76;100549.84;1740917;82;21035;-70
2022/06/10 03:47:23;;;;;;;8.95;4.70;;;;;;;27.07;50.80;100551.46;1725990;80;21079;-69
2022/06/10 03:49:58;;;;;;;11.35;4.55;;;;;;;27.34;50.25;100550.99;1729300;80;21035;-71
2022/06/10 03:52:29;;;;;;;8.50;4.80;;;;;;;27.43;49.51;100546.96;1726338;80;21004;-70
2022/06/10 03:54:56;;;;;;;9.60;5.00;;;;;;;27.65;49.64;100540.02;1725072;80;21099;-71
2022/06/10 03:57:24;;;;;;;7.97;4.80;;;;;;;27.56;48.92;100549.34;1723182;80;21547;-70
2022/06/10 03:59:51;;;;;;;11.53;4.80;;;;;;;27.79;50.33;100543.19;1713330;80;21512;-70
2022/06/10 04:02:18;;;;;;;6.87;4.10;;;;;;;27.83;50.78;100546.30;1723719;82;21063;-69
2022/06/10 04:04:46;;;;;;;8.85;4.60;;;;;;;27.88;49.99;100554.06;1746294;80;21524;-69
2022/06/10 04:07:17;;;;;;;11.75;4.53;;;;;;;27.93;50.05;100552.19;1711788;82;21084;-70
2022/06/10 04:09:47;;;;;;;10.40;4.47;;;;;;;28.12;49.43;100541.09;1726868;82;21064;-71
2022/06/10 04:12:15;;;;;;;9.78;5.03;;;;;;;28.21;49.39;100546.30;1729441;82;21039;-71
2022/06/10 04:14:44;;;;;;;13.78;4.90;;;;;;;28.29;49.21;100547.02;1733834;82;21535;-70
2022/06/10 04:17:11;;;;;;;8.65;4.40;;;;;;;28.39;50.02;100549.39;1716361;82;21051;-70
2022/06/10 04:19:38;;;;;;;6.70;4.50;;;;;;;28.45;49.68;100547.33;1719724;82;21031;-70
2022/06/10 04:22:05;;;;;;;9.50;4.70;;;;;;;28.36;49.84;100552.39;1724731;80;20989;-69
2022/06/10 04:24:32;;;;;;;7.45;4.28;;;;;;;28.19;49.64;100549.63;1738404;82;21071;-71
2022/06/10 04:26:59;;;;;;;6.12;4.10;;;;;;;28.57;49.16;100560.97;1734165;82;21020;-69
2022/06/10 04:29:27;;;;;;;6.25;4.17;;;;;;;28.88;48.90;100559.39;1719260;82;21082;-70
2022/06/10 04:31:55;;;;;;;11.78;4.08;;;;;;;28.80;48.63;100563.98;1721187;82;21051;-70
2022/06/10 04:34:22;;;;;;;9.20;4.20;;;;;;;28.93;48.31;100568.09;1722691;82;21097;-70
2022/06/10 04:36:49;;;;;;;9.18;4.05;;;;;;;28.63;48.03;100559.37;1734557;82;21019;-70
2022/06/10 04:39:16;;;;;;;10.60;4.22;;;;;;;29.00;47.65;100572.17;1722397;82;21083;-70
2022/06/10 04:41:44;;;;;;;8.18;3.80;;;;;;;29.47;47.91;100578.27;1737765;82;21032;-70
2022/06/10 04:44:12;;;;;;;9.63;4.20;;;;;;;29.55;46.94;100575.48;1722613;82;21045;-70
2022/06/10 04:46:42;;;;;;;10.48;5.00;;;;;;;29.72;47.85;100583.20;1727031;80;21012;-70
2022/06/10 04:49:10;;;;;;;9.80;5.22;;;;;;;29.93;47.95;100585.02;1731811;81;21587;-70
2022/06/10 04:51:38;;;;;;;9.13;5.67;;;;;;;29.87;47.72;100585.28;1718327;82;21059;-71
2022/06/10 04:54:07;;;;;;;11.15;4.70;;;;;;;30.03;46.16;100588.16;1719387;82;21329;-70
2022/06/10 04:56:37;;;;;;;10.20;4.35;;;;;;;30.31;46.50;100589.98;1736256;82;21020;-71
2022/06/10 04:59:04;;;;;;;7.62;3.98;;;;;;;30.19;45.42;100587.52;1721393;82;21028;-70
2022/06/10 05:01:32;;;;;;;8.28;4.20;;;;;;;30.06;46.58;100585.61;1744910;80;21024;-70
2022/06/10 05:04:00;;;;;;;6.78;4.00;;;;;;;30.68;45.35;100593.25;1760407;80;21015;-70
2022/06/10 05:06:27;;;;;;;5.70;4.00;;;;;;;29.99;45.29;100589.55;1763849;80;21027;-70
2022/06/10 05:08:56;;;;;;;10.65;4.08;;;;;;;29.90;43.75;100595.50;1768775;80;21539;-70
2022/06/10 05:11:24;;;;;;;6.42;3.35;;;;;;;30.50;44.26;100601.23;1766108;80;21083;-70
2022/06/10 05:13:52;;;;;;;9.33;3.45;;;;;;;30.73;43.66;100596.13;1761955;80;21521;-70
2022/06/10 05:16:19;;;;;;;7.50;3.45;;;;;;;30.86;42.22;100603.31;1769277;80;21090;-69
2022/06/10 05:18:46;;;;;;;9.43;3.80;;;;;;;30.87;42.87;100596.48;1762615;80;20979;-70
2022/06/10 05:21:13;;;;;;;8.05;3.27;;;;;;;30.95;43.33;100599.51;1727786;81;21067;-70
2022/06/10 05:23:45;;;;;;;10.20;3.20;;;;;;;30.61;43.66;100599.84;1721696;81;21010;-70
2022/06/10 05:26:11;;;;;;;9.35;3.08;;;;;;;30.91;42.67;100594.28;1721499;82;21621;-71
2022/06/10 05:28:38;;;;;;;6.75;3.08;;;;;;;31.35;42.48;100587.13;1741946;82;21654;-70
2022/06/10 05:31:06;;;;;;;4.17;2.83;;;;;;;31.45;42.23;100585.92;1723752;82;21146;-70
2022/06/10 05:36:19;;;;;;;5.45;3.00;;;;;;;31.44;42.85;100588.27;1735170;82;21076;-69
2022/06/10 05:38:47;;;;;;;5.90;2.60;;;;;;;31.80;40.78;100591.89;1721174;82;21076;-70
2022/06/10 05:44:00;;;;;;;7.42;2.72;;;;;;;31.20;39.19;100592.31;1727020;82;21024;-70
2022/06/10 05:46:28;;;;;;;6.45;2.65;;;;;;;31.21;39.52;100601.42;1718661;81;21040;-72
2022/06/10 05:48:56;;;;;;;5.25;2.70;;;;;;;31.74;39.68;100601.50;1727206;80;21017;-71
2022/06/10 05:51:23;;;;;;;9.05;2.80;;;;;;;31.92;37.04;100594.75;1743415;80;20996;-70
2022/06/10 05:53:50;;;;;;;4.30;2.83;;;;;;;31.93;37.24;100593.70;1743983;81;21008;-70
2022/06/10 05:56:19;;;;;;;7.12;2.77;;;;;;;32.33;37.50;100597.67;1740667;81;21062;-70
2022/06/10 05:58:46;;;;;;;4.35;2.45;;;;;;;32.39;39.05;100596.84;1716750;82;21494;-70
2022/06/10 06:01:13;;;;;;;9.50;2.67;;;;;;;32.39;39.05;100596.84;1735309;82;20987;-69
2022/06/10 06:03:41;;;;;;;6.85;2.60;;;;;;;32.56;39.19;100595.07;1732614;80;21023;-69
2022/06/10 06:06:10;;;;;;;5.85;2.50;;;;;;;32.97;39.15;100591.19;1719974;81;21071;-70
2022/06/10 06:08:38;;;;;;;5.12;2.52;;;;;;;32.57;36.12;100590.06;1716799;80;21107;-70
2022/06/10 06:11:05;;;;;;;4.67;2.40;;;;;;;32.48;37.72;100588.93;1756651;80;21073;-71
2022/06/10 06:13:33;;;;;;;5.55;2.40;;;;;;;32.80;37.06;100583.69;1764073;80;21541;-71
2022/06/10 06:16:01;;;;;;;10.40;2.65;;;;;;;33.16;38.51;100593.49;1774300;80;21122;-71
2022/06/10 06:18:29;;;;;;;7.35;2.30;;;;;;;32.79;37.03;100591.40;1765301;80;21015;-69
2022/06/10 06:20:56;;;;;;;5.37;2.60;;;;;;;33.19;37.09;100602.38;1773468;80;21103;-70
2022/06/10 06:23:24;;;;;;;4.03;2.30;;;;;;;33.21;37.36;100598.98;1760748;80;21094;-70
2022/06/10 06:25:51;;;;;;;7.00;2.80;;;;;;;33.30;38.11;100597.70;1768196;80;21024;-70
2022/06/10 06:28:18;;;;;;;5.80;3.17;;;;;;;33.36;37.40;100601.37;1735306;80;21539;-70
2022/06/10 06:30:46;;;;;;;8.50;2.75;;;;;;;33.09;37.12;100598.84;1749073;80;21511;-70
2022/06/10 06:33:13;;;;;;;6.87;2.80;;;;;;;33.09;37.33;100594.84;1756517;80;21059;-70
2022/06/10 06:35:44;;;;;;;9.38;2.80;;;;;;;33.25;36.93;100599.66;1765608;80;21014;-69
2022/06/10 06:38:11;;;;;;;6.12;2.77;;;;;;;33.03;37.03;100589.00;1758999;80;21059;-70
2022/06/10 06:40:40;;;;;;;6.37;2.95;;;;;;;33.13;36.24;100588.89;1773283;80;21024;-70
2022/06/10 06:43:10;;;;;;;4.90;2.87;;;;;;;33.70;36.92;100594.77;1761985;80;21093;-70
2022/06/10 06:45:38;;;;;;;8.20;3.02;;;;;;;33.70;36.61;100594.77;1768958;81;20997;-70
2022/06/10 06:48:09;;;;;;;7.00;3.33;;;;;;;33.65;35.46;100604.75;1757188;80;21520;-70
2022/06/10 06:50:45;;;;;;;6.87;3.12;;;;;;;33.74;34.87;100590.63;1752339;80;21507;-70
2022/06/10 06:53:13;;;;;;;7.78;3.08;;;;;;;33.90;36.07;100603.92;1735558;81;21029;-72
2022/06/10 06:55:41;;;;;;;7.33;3.37;;;;;;;33.60;36.98;100600.56;1746701;81;21496;-70
2022/06/10 06:58:14;;;;;;;9.13;3.30;;;;;;;33.37;36.33;100593.65;1744826;80;21588;-70
2022/06/10 07:00:42;;;;;;;10.85;3.60;;;;;;;33.46;35.56;100592.36;1742058;81;21121;-70
2022/06/10 07:03:10;;;;;;;6.45;3.35;;;;;;;33.75;36.19;100594.11;1715502;82;21035;-70
2022/06/10 07:05:38;;;;;;;5.35;3.20;;;;;;;34.09;36.07;100597.58;1709179;83;21072;-69
2022/06/10 07:08:05;;;;;;;9.25;3.12;;;;;;;34.26;35.79;100602.37;1710874;83;21025;-69
2022/06/10 07:10:33;;;;;;;8.88;3.42;;;;;;;34.20;36.06;100593.91;1683003;84;21099;-70
2022/06/10 07:13:02;;;;;;;5.67;3.12;;;;;;;34.43;36.70;100594.56;1680116;84;21500;-70
2022/06/10 07:15:30;;;;;;;5.85;3.20;;;;;;;34.42;37.19;100595.09;1678216;83;21112;-69
2022/06/10 07:18:00;;;;;;;6.90;3.20;;;;;;;34.49;35.67;100591.84;1681662;85;21533;-70
2022/06/10 07:27:29;;;;;;;8.15;2.77;;;;;;;34.80;35.01;100591.91;1809547;78;21020;-69
2022/06/10 07:29:56;;;;;;;8.33;2.42;;;;;;;34.53;35.73;100596.19;1800351;79;21024;-70
2022/06/10 07:32:24;;;;;;;7.25;2.70;;;;;;;34.56;33.41;100592.27;1803493;79;21051;-70
2022/06/10 07:34:52;;;;;;;4.12;2.22;;;;;;;34.55;35.38;100590.63;1799297;79;20972;-69
2022/06/10 07:37:19;;;;;;;5.33;2.52;;;;;;;34.30;34.67;100592.87;1794206;79;21035;-69
2022/06/10 07:39:46;;;;;;;8.35;2.37;;;;;;;34.88;34.85;100596.94;1772349;80;21035;-69
2022/06/10 07:42:14;;;;;;;5.03;2.27;;;;;;;34.71;34.03;100595.39;1802375;79;21047;-69
2022/06/10 07:44:41;;;;;;;7.62;2.42;;;;;;;34.79;34.61;100596.41;1743176;82;21048;-69
2022/06/10 07:47:12;;;;;;;6.55;2.20;;;;;;;34.32;34.05;100591.60;1804500;79;20992;-69
2022/06/10 07:49:40;;;;;;;6.28;2.27;;;;;;;34.64;35.10;100602.13;1794579;79;21070;-69
2022/06/10 07:52:09;;;;;;;6.95;2.47;;;;;;;34.69;35.07;100590.78;1803105;79;21099;-69
2022/06/10 07:54:36;;;;;;;7.12;2.60;;;;;;;35.41;34.79;100592.70;1735594;82;21550;-69
2022/06/10 07:57:08;;;;;;;5.67;2.17;;;;;;;35.16;34.35;100594.19;1733375;81;21079;-69
2022/06/10 07:59:35;;;;;;;3.58;2.20;;;;;;;35.41;34.51;100594.84;1816558;78;21075;-69
2022/06/10 08:02:03;;;;;;;4.90;2.10;;;;;;;35.33;34.32;100590.36;1784297;78;21024;-70
2022/06/10 08:04:30;;;;;;;3.80;2.08;;;;;;;35.03;34.14;100595.18;1787247;79;20992;-70
2022/06/10 08:06:57;;;;;;;4.60;2.15;;;;;;;35.56;33.91;100594.39;1714520;82;21036;-68
2022/06/10 08:09:24;;;;;;;3.40;2.10;;;;;;;35.58;34.46;100594.97;1779682;79;21027;-69
2022/06/10 08:11:52;;;;;;;5.42;2.30;;;;;;;34.73;34.29;100602.66;1803092;79;21186;-69
2022/06/10 08:14:20;;;;;;;5.10;2.22;;;;;;;34.87;33.57;100597.96;1736485;82;21134;-68
2022/06/10 08:16:49;;;;;;;6.58;2.30;;;;;;;35.05;33.90;100597.10;1742942;81;21488;-70
2022/06/10 08:19:18;;;;;;;4.67;2.02;;;;;;;35.83;33.55;100593.96;1797838;79;21587;-69
2022/06/10 08:24:30;;;;;;;5.97;1.95;;;;;;;35.33;33.18;100598.39;1758434;79;21016;-68
2022/06/10 08:26:57;;;;;;;6.75;2.00;;;;;;;34.88;32.34;100596.41;1759499;80;21057;-69
2022/06/10 08:29:26;;;;;;;4.33;2.20;;;;;;;35.58;32.37;100599.52;1775159;80;21074;-69
2022/06/10 08:31:54;;;;;;;6.85;2.10;;;;;;;35.95;33.19;100595.30;1767804;80;21061;-69
2022/06/10 08:34:21;;;;;;;3.25;2.00;;;;;;;36.01;31.18;100593.87;1764250;80;20983;-69
2022/06/10 08:36:48;;;;;;;9.40;2.52;;;;;;;35.74;33.01;100596.72;1771603;80;21038;-70
2022/06/10 08:39:15;;;;;;;7.10;2.10;;;;;;;35.57;32.21;100601.39;1773797;80;21022;-69
2022/06/10 08:42:13;;;;;;;7.45;2.05;;;;;;;36.32;32.47;100589.69;1778890;80;20998;-70
2022/06/10 08:44:54;;;;;;;4.40;2.02;;;;;;;35.35;31.48;100584.25;1775952;80;21031;-69
2022/06/10 08:47:51;;;;;;;5.28;2.22;;;;;;;35.85;33.16;100586.51;1780249;80;21024;-69
2022/06/10 08:50:41;;;;;;;4.20;1.80;;;;;;;35.77;32.97;100584.19;1773239;80;21083;-69
2022/06/10 08:53:32;;;;;;;3.55;2.15;;;;;;;35.45;32.49;100592.00;1751577;81;21058;-69
2022/06/10 08:56:21;;;;;;;3.77;2.00;;;;;;;36.06;32.93;100587.27;1750947;81;21511;-70
2022/06/10 08:59:15;;;;;;;4.83;2.05;;;;;;;36.39;31.30;100576.98;1725508;81;21031;-69
2022/06/10 09:02:07;;;;;;;3.15;1.90;;;;;;;36.21;32.39;100582.78;1763069;80;21098;-70
2022/06/10 09:04:58;;;;;;;5.72;1.87;;;;;;;36.00;32.21;100578.83;1736107;80;21051;-70
2022/06/10 09:07:34;;;;;;;5.20;2.20;;;;;;;36.30;30.49;100572.53;1752140;80;21090;-69
2022/06/10 09:10:07;;;;;;;6.30;2.50;;;;;;;36.43;31.00;100578.94;1743177;81;21036;-70
2022/06/10 09:13:11;;;;;;;5.25;2.00;;;;;;;36.56;31.64;100575.70;1765483;80;20996;-70
2022/06/10 09:16:10;;;;;;;4.45;1.85;;;;;;;36.74;30.48;100580.90;1754286;80;21024;-69
2022/06/10 09:19:06;;;;;;;9.90;2.10;;;;;;;36.66;29.22;100579.95;1752514;80;21035;-69
2022/06/10 09:22:12;;;;;;;5.22;2.20;;;;;;;36.77;30.51;100571.05;1768304;80;21051;-68
2022/06/10 09:24:53;;;;;;;7.40;2.22;;;;;;;36.84;31.11;100571.73;1715183;80;22162;-69
2022/06/10 09:27:44;;;;;;;6.28;2.25;;;;;;;36.66;30.05;100570.05;1753225;80;21491;-70
2022/06/10 09:30:16;;;;;;;4.28;1.90;;;;;;;36.28;29.98;100576.78;1741154;81;21621;-69
2022/06/10 09:33:07;;;;;;;6.97;2.35;;;;;;;36.57;30.08;100577.34;1756036;80;21530;-70
2022/06/10 09:36:07;;;;;;;4.40;2.20;;;;;;;36.62;29.73;100576.08;1755202;81;20999;-69
2022/06/10 09:38:58;;;;;;;4.25;2.25;;;;;;;36.63;30.75;100579.09;1752073;80;21091;-70
2022/06/10 09:41:36;;;;;;;6.80;2.10;;;;;;;37.00;30.00;100571.98;1741906;81;21051;-69
2022/06/10 09:44:18;;;;;;;7.17;2.15;;;;;;;37.13;30.13;100565.52;1767575;80;21550;-69
2022/06/10 09:47:22;;;;;;;4.92;2.20;;;;;;;37.02;29.86;100558.60;1740839;81;21023;-70
2022/06/10 09:50:23;;;;;;;7.75;2.10;;;;;;;37.04;29.03;100558.37;1765821;80;21026;-70
2022/06/10 09:53:14;;;;;;;6.03;2.10;;;;;;;36.92;29.08;100558.97;1741190;81;21039;-69
2022/06/10 09:56:00;;;;;;;2.83;2.30;;;;;;;36.80;29.74;100558.52;1749472;81;21039;-70
2022/06/10 10:08:26;;;;;;;7.37;2.27;;;;;;;36.40;30.72;100561.20;1772896;80;21055;-69
2022/06/10 10:11:23;;;;;;;5.22;1.90;;;;;;;37.01;29.75;100561.02;1772149;80;21023;-70
2022/06/10 10:14:29;;;;;;;3.47;2.30;;;;;;;36.92;30.65;100558.97;1786786;80;21047;-69
2022/06/10 10:17:26;;;;;;;4.97;2.10;;;;;;;36.65;30.68;100561.70;1773780;80;21511;-69
2022/06/10 10:20:19;;;;;;;2.75;1.90;;;;;;;36.98;29.74;100553.44;1763602;80;21051;-70
2022/06/10 10:23:10;;;;;;;4.70;2.00;;;;;;;36.55;31.28;100557.46;1741630;81;21025;-70
2022/06/10 10:25:41;;;;;;;8.50;1.82;;;;;;;37.01;31.06;100552.16;1767907;80;21017;-69
2022/06/10 10:28:18;;;;;;;6.12;1.92;;;;;;;36.78;31.15;100553.91;1772615;80;21053;-69
2022/06/10 10:31:03;;;;;;;2.80;2.10;;;;;;;36.66;31.13;100559.33;1767215;80;21028;-69
2022/06/10 10:33:32;;;;;;;4.55;2.00;;;;;;;36.99;30.91;100550.25;1781543;80;21554;-69
2022/06/10 10:35:59;;;;;;;6.42;1.90;;;;;;;37.22;31.24;100553.33;1769773;80;21076;-69
2022/06/10 10:38:41;;;;;;;5.87;1.90;;;;;;;37.28;29.66;100553.16;1772368;80;21440;-69
2022/06/10 10:41:29;;;;;;;5.33;1.80;;;;;;;37.46;28.62;100542.70;1780735;80;21558;-69
2022/06/10 10:44:02;;;;;;;3.60;1.80;;;;;;;37.59;29.17;100546.14;1751912;80;21033;-68
2022/06/10 10:46:45;;;;;;;3.87;2.00;;;;;;;37.34;29.95;100547.36;1756616;80;21551;-69
2022/06/10 10:49:35;;;;;;;2.87;1.77;;;;;;;37.78;28.27;100552.07;1772089;80;21091;-68
2022/06/10 10:52:21;;;;;;;5.50;1.90;;;;;;;37.91;30.81;100554.92;1766158;80;20988;-69
2022/06/10 10:54:53;;;;;;;2.60;1.90;;;;;;;37.55;30.56;100545.78;1768375;80;21066;-68
2022/06/10 10:57:31;;;;;;;5.37;1.95;;;;;;;38.08;30.92;100553.04;1764710;80;21562;-69
2022/06/10 11:00:14;;;;;;;5.22;1.98;;;;;;;37.86;28.99;100544.39;1757772;80;21097;-68
2022/06/10 11:03:01;;;;;;;4.75;2.10;;;;;;;37.90;29.31;100537.99;1758768;80;21069;-68
2022/06/10 11:05:37;;;;;;;7.40;2.25;;;;;;;38.02;30.30;100536.50;1731811;82;20986;-69
2022/06/10 11:08:30;;;;;;;7.17;2.00;;;;;;;37.94;30.16;100542.31;1725151;81;21015;-69
2022/06/10 11:11:24;;;;;;;4.95;1.90;;;;;;;37.53;30.67;100537.70;1724071;81;21073;-68
2022/06/10 11:13:54;;;;;;;;;;;;;;;37.98;29.79;100536.22;1744136;82;21073;-69
2022/06/10 11:16:38;;;;;;;5.97;1.75;;;;;;;38.36;29.81;100539.09;1739584;82;20166;-68
2022/06/10 11:19:22;;;;;;;7.95;2.20;;;;;;;37.59;30.42;100534.86;1708522;82;21043;-69
2022/06/10 11:22:12;;;;;;;6.22;1.95;;;;;;;37.09;29.83;100539.69;1731770;82;21011;-69
2022/06/10 11:24:49;;;;;;;2.83;1.62;;;;;;;37.75;30.12;100535.09;1738000;81;21002;-69
2022/06/10 11:27:37;;;;;;;2.72;1.85;;;;;;;37.49;31.31;100527.46;1746826;82;21032;-69
2022/06/10 11:30:10;;;;;;;3.83;1.87;;;;;;;37.36;29.10;100530.47;1722606;82;21021;-69
2022/06/10 11:32:58;;;;;;;4.10;2.10;;;;;;;37.22;29.35;100525.15;1721055;82;21026;-69
2022/06/10 11:35:33;;;;;;;4.42;1.90;;;;;;;37.72;29.63;100527.00;1736639;81;21050;-69
2022/06/10 11:38:18;;;;;;;3.47;2.10;;;;;;;38.05;30.59;100530.67;1736685;81;21086;-69
2022/06/10 11:40:59;;;;;;;5.87;2.20;;;;;;;38.30;30.15;100524.78;1731514;81;21542;-69
2022/06/10 11:43:38;;;;;;;4.92;2.10;;;;;;;38.51;29.92;100523.17;1729107;81;21076;-69
2022/06/10 11:46:14;;;;;;;6.17;2.20;;;;;;;38.12;28.98;100525.94;1744550;81;21085;-69
2022/06/10 11:49:12;;;;;;;7.60;2.37;;;;;;;38.33;29.76;100523.48;1732146;82;21411;-69
2022/06/10 11:51:44;;;;;;;4.17;2.10;;;;;;;38.52;30.50;100526.66;1743983;82;21069;-69
2022/06/10 11:54:40;;;;;;;3.55;2.05;;;;;;;38.81;30.88;100522.66;1745652;82;21534;-69
2022/06/10 12:00:31;;;;;;;4.65;1.90;;;;;;;38.80;29.43;100525.05;1752855;82;21052;-69
2022/06/10 12:03:21;;;;;;;3.47;1.90;;;;;;;38.84;30.30;100518.63;1724233;82;21095;-69
2022/06/10 12:06:23;;;;;;;3.87;1.92;;;;;;;38.55;28.81;100519.45;1711312;81;21082;-69
2022/06/10 12:08:56;;;;;;;4.62;1.65;;;;;;;38.91;28.75;100513.84;1712281;82;21023;-69
2022/06/10 12:11:41;;;;;;;6.60;1.90;;;;;;;39.46;26.01;100516.74;1718819;81;21042;-69
2022/06/10 12:14:37;;;;;;;5.83;1.82;;;;;;;39.50;27.96;100513.00;1738030;82;21061;-69
2022/06/10 12:17:30;;;;;;;3.00;1.75;;;;;;;39.05;29.05;100518.29;1711797;82;21071;-69
2022/06/10 12:20:08;;;;;;;5.50;1.82;;;;;;;39.78;28.10;100517.70;1718097;81;21047;-69
2022/06/10 12:22:36;;;;;;;6.05;1.95;;;;;;;40.11;29.11;100517.06;1726748;81;21932;-69
2022/06/10 12:25:18;;;;;;;5.83;2.20;;;;;;;39.32;28.84;100512.85;1730809;82;21070;-70
2022/06/10 12:27:56;;;;;;;6.45;2.75;;;;;;;39.52;28.47;100517.59;1718704;81;21591;-69
2022/06/10 12:30:35;;;;;;;7.15;2.08;;;;;;;39.67;28.58;100511.47;1734972;81;21036;-70
2022/06/10 12:33:10;;;;;;;4.67;2.12;;;;;;;39.30;27.25;100509.61;1696202;83;21096;-70
2022/06/10 12:35:39;;;;;;;4.90;1.80;;;;;;;39.12;28.11;100504.09;1695156;83;21072;-69
2022/06/10 12:38:15;;;;;;;5.45;1.87;;;;;;;38.66;27.50;100509.85;1679670;83;21083;-69